Terminal Aerodrome Forecast
Issued by NWS

Home | Current Version | Previous Version | Text Only | Print | Product List | Glossary On
Versions: 1 2 3 4 5 6 7 8 9 10 11 12 13 14 15 16 17 18 19 20 21 22 23 24 25 26 27 28
000
FTPQ31 PGUM 240346 AAA
TAFGUM
TAF AMD

TAF AMD
PTRO 240346Z 2404/2424 05012G20KT P6SM VCSH FEW016 SCT040 BKN140
      TEMPO 2404/2407 -SHRA BKN016
     FM240900 05011KT P6SM VCSH FEW016 SCT040=

USA.gov is the U.S. government's official web portal to all federal, state and local government web resources and services.